Decoded Metar for CYGR (ILES DE LA MADELEINE in QC, CANADA) (IATA:YGR) | Meteo·Mobile Aviation Weather
aviador You're here:

CYGR Decoded Metar

ILES DE LA MADELEINE in QC, CANADA
Report Time2019-08-24 13:00:00
UTC Time2019-08-24 14:10:45
Flight Rules Old
Wind020° at 19 Gusting to 28 kt
W.Decomp.*RWY 07: 16.3 kt HW 9.8 kt LCW
RWY 34: 9.8 kt HW 16.3 kt RCW
Visibility9999 m
Phenomena:N/A
Clouds:Broken 023 Hf
Expected CloudBase > 1,600 ft AGL from Temp-Dew spread
Ceiling2,300 ft
Temp15°C (ISA 0)
Dew Point11°C (77% RH)
AAT8.5°C
QNH1018 hPa
Density Alt49 ft
Elevation33 ft
Report Wrong Elevation
Raw Report
CYGR 241300Z 02019G28KT 15SM BKN023 15/11 A3005 RMK CU7 PRESRR
SLP178=

Extra information for CYGR:More info

Metar Taf Metar & Taf Last 4 Metars F.Rules Stats Wind Profile Meteogram Temp Stats Airport Information Weather charts Add Link Nearby VenuesMetar ALERT Operation Metar Decoded Social comments